sensor_id;sensor_type;location;lat;lon;timestamp;temperature;humidity
9564;DHT22;4820;50.870;4.702;2023-03-13T00:02:12;11.20;99.90
9564;DHT22;4820;50.870;4.702;2023-03-13T00:04:38;11.20;99.90
9564;DHT22;4820;50.870;4.702;2023-03-13T00:07:03;11.20;99.90
9564;DHT22;4820;50.870;4.702;2023-03-13T00:09:29;11.20;99.90
9564;DHT22;4820;50.870;4.702;2023-03-13T00:11:55;11.20;99.90
9564;DHT22;4820;50.870;4.702;2023-03-13T00:14:21;11.20;99.90
9564;DHT22;4820;50.870;4.702;2023-03-13T00:16:47;11.20;99.90
9564;DHT22;4820;50.870;4.702;2023-03-13T00:19:13;11.10;99.90
9564;DHT22;4820;50.870;4.702;2023-03-13T00:21:39;11.20;99.90
9564;DHT22;4820;50.870;4.702;2023-03-13T00:24:06;11.20;99.90
9564;DHT22;4820;50.870;4.702;2023-03-13T00:26:32;11.20;99.90
9564;DHT22;4820;50.870;4.702;2023-03-13T00:28:58;11.10;99.90
9564;DHT22;4820;50.870;4.702;2023-03-13T00:31:27;11.20;99.90
9564;DHT22;4820;50.870;4.702;2023-03-13T00:33:56;11.20;99.90
9564;DHT22;4820;50.870;4.702;2023-03-13T00:36:25;11.20;99.90
9564;DHT22;4820;50.870;4.702;2023-03-13T00:38:52;11.20;99.90
9564;DHT22;4820;50.870;4.702;2023-03-13T00:41:24;11.30;99.90
9564;DHT22;4820;50.870;4.702;2023-03-13T00:43:51;11.30;99.90
9564;DHT22;4820;50.870;4.702;2023-03-13T00:46:19;11.30;99.90
9564;DHT22;4820;50.870;4.702;2023-03-13T00:48:45;11.30;99.90
9564;DHT22;4820;50.870;4.702;2023-03-13T00:51:12;11.20;99.90
9564;DHT22;4820;50.870;4.702;2023-03-13T00:53:38;11.20;99.90
9564;DHT22;4820;50.870;4.702;2023-03-13T00:56:12;11.20;99.90
9564;DHT22;4820;50.870;4.702;2023-03-13T00:58:39;11.20;99.90
9564;DHT22;4820;50.870;4.702;2023-03-13T01:01:13;11.20;99.90
9564;DHT22;4820;50.870;4.702;2023-03-13T01:03:40;11.20;99.90
9564;DHT22;4820;50.870;4.702;2023-03-13T01:06:11;11.20;99.90
9564;DHT22;4820;50.870;4.702;2023-03-13T01:08:38;11.20;99.90
9564;DHT22;4820;50.870;4.702;2023-03-13T01:11:07;11.20;99.90
9564;DHT22;4820;50.870;4.702;2023-03-13T01:13:33;11.20;99.90
9564;DHT22;4820;50.870;4.702;2023-03-13T01:16:05;11.20;99.90
9564;DHT22;4820;50.870;4.702;2023-03-13T01:18:32;11.20;99.90
9564;DHT22;4820;50.870;4.702;2023-03-13T01:20:58;11.20;99.90
9564;DHT22;4820;50.870;4.702;2023-03-13T01:23:24;11.30;99.90
9564;DHT22;4820;50.870;4.702;2023-03-13T01:25:50;11.30;99.90
9564;DHT22;4820;50.870;4.702;2023-03-13T01:28:16;11.30;99.90
9564;DHT22;4820;50.870;4.702;2023-03-13T01:30:42;11.30;99.90
9564;DHT22;4820;50.870;4.702;2023-03-13T01:33:07;11.40;99.90
9564;DHT22;4820;50.870;4.702;2023-03-13T01:35:33;11.40;99.90
9564;DHT22;4820;50.870;4.702;2023-03-13T01:37:59;11.50;99.90
9564;DHT22;4820;50.870;4.702;2023-03-13T01:40:26;11.40;99.90
9564;DHT22;4820;50.870;4.702;2023-03-13T01:42:54;11.50;99.90
9564;DHT22;4820;50.870;4.702;2023-03-13T01:46:39;11.60;99.90
9564;DHT22;4820;50.870;4.702;2023-03-13T01:51:27;11.60;99.90
9564;DHT22;4820;50.870;4.702;2023-03-13T01:53:59;11.70;99.90
9564;DHT22;4820;50.870;4.702;2023-03-13T01:56:33;11.70;99.90
9564;DHT22;4820;50.870;4.702;2023-03-13T01:59:02;11.70;99.90
9564;DHT22;4820;50.870;4.702;2023-03-13T02:01:28;11.70;99.90
9564;DHT22;4820;50.870;4.702;2023-03-13T02:03:56;11.70;99.90
9564;DHT22;4820;50.870;4.702;2023-03-13T02:06:22;11.70;99.90
9564;DHT22;4820;50.870;4.702;2023-03-13T02:08:53;11.60;99.90
9564;DHT22;4820;50.870;4.702;2023-03-13T02:11:26;11.60;99.90
9564;DHT22;4820;50.870;4.702;2023-03-13T02:13:55;11.60;99.90
9564;DHT22;4820;50.870;4.702;2023-03-13T02:16:21;11.60;99.90
9564;DHT22;4820;50.870;4.702;2023-03-13T02:18:48;11.60;99.90
9564;DHT22;4820;50.870;4.702;2023-03-13T02:21:24;11.60;99.90
9564;DHT22;4820;50.870;4.702;2023-03-13T02:24:27;11.70;99.90
9564;DHT22;4820;50.870;4.702;2023-03-13T02:26:55;11.70;99.90
9564;DHT22;4820;50.870;4.702;2023-03-13T02:29:22;11.80;99.90
9564;DHT22;4820;50.870;4.702;2023-03-13T02:31:51;11.80;99.90
9564;DHT22;4820;50.870;4.702;2023-03-13T02:34:20;11.90;99.90
9564;DHT22;4820;50.870;4.702;2023-03-13T02:36:49;12.00;99.90
9564;DHT22;4820;50.870;4.702;2023-03-13T02:39:19;12.00;99.90
9564;DHT22;4820;50.870;4.702;2023-03-13T02:41:47;12.00;99.90
9564;DHT22;4820;50.870;4.702;2023-03-13T02:44:13;12.10;99.90
9564;DHT22;4820;50.870;4.702;2023-03-13T02:46:49;12.20;99.90
9564;DHT22;4820;50.870;4.702;2023-03-13T02:49:27;12.20;99.90
9564;DHT22;4820;50.870;4.702;2023-03-13T02:51:56;12.30;99.90
9564;DHT22;4820;50.870;4.702;2023-03-13T02:54:27;12.30;99.90
9564;DHT22;4820;50.870;4.702;2023-03-13T02:56:58;12.40;99.90
9564;DHT22;4820;50.870;4.702;2023-03-13T02:59:25;12.40;99.90
9564;DHT22;4820;50.870;4.702;2023-03-13T03:01:52;12.40;99.90
9564;DHT22;4820;50.870;4.702;2023-03-13T03:04:22;12.50;99.90
9564;DHT22;4820;50.870;4.702;2023-03-13T03:06:49;12.50;99.90
9564;DHT22;4820;50.870;4.702;2023-03-13T03:09:15;12.60;99.90
9564;DHT22;4820;50.870;4.702;2023-03-13T03:11:41;12.60;99.90
9564;DHT22;4820;50.870;4.702;2023-03-13T03:14:08;12.60;99.90
9564;DHT22;4820;50.870;4.702;2023-03-13T03:16:34;12.60;99.90
9564;DHT22;4820;50.870;4.702;2023-03-13T03:19:01;12.70;99.90
9564;DHT22;4820;50.870;4.702;2023-03-13T03:21:28;12.70;99.90
9564;DHT22;4820;50.870;4.702;2023-03-13T03:23:53;12.70;99.90
9564;DHT22;4820;50.870;4.702;2023-03-13T03:26:19;12.80;99.90
9564;DHT22;4820;50.870;4.702;2023-03-13T03:28:45;12.80;99.90
9564;DHT22;4820;50.870;4.702;2023-03-13T03:31:13;12.80;99.90
9564;DHT22;4820;50.870;4.702;2023-03-13T03:33:39;12.90;99.90
9564;DHT22;4820;50.870;4.702;2023-03-13T03:36:08;12.90;99.90
9564;DHT22;4820;50.870;4.702;2023-03-13T03:38:34;12.90;99.90
9564;DHT22;4820;50.870;4.702;2023-03-13T03:41:00;12.90;99.90
9564;DHT22;4820;50.870;4.702;2023-03-13T03:43:25;13.00;99.90
9564;DHT22;4820;50.870;4.702;2023-03-13T03:45:51;13.00;99.90
9564;DHT22;4820;50.870;4.702;2023-03-13T03:48:19;13.00;99.90
9564;DHT22;4820;50.870;4.702;2023-03-13T03:50:44;13.00;99.90
9564;DHT22;4820;50.870;4.702;2023-03-13T03:53:10;13.10;99.90
9564;DHT22;4820;50.870;4.702;2023-03-13T03:55:35;13.10;99.90
9564;DHT22;4820;50.870;4.702;2023-03-13T03:58:01;13.10;99.90
9564;DHT22;4820;50.870;4.702;2023-03-13T04:00:27;13.10;99.90
9564;DHT22;4820;50.870;4.702;2023-03-13T04:02:53;13.10;99.90
9564;DHT22;4820;50.870;4.702;2023-03-13T04:05:20;13.10;99.90
9564;DHT22;4820;50.870;4.702;2023-03-13T04:07:46;13.10;99.90
9564;DHT22;4820;50.870;4.702;2023-03-13T04:10:12;13.10;99.90
9564;DHT22;4820;50.870;4.702;2023-03-13T04:12:38;13.10;99.90
9564;DHT22;4820;50.870;4.702;2023-03-13T04:15:05;13.10;99.90
9564;DHT22;4820;50.870;4.702;2023-03-13T04:17:31;13.20;99.90
9564;DHT22;4820;50.870;4.702;2023-03-13T04:19:58;13.20;99.90
9564;DHT22;4820;50.870;4.702;2023-03-13T04:22:23;13.20;99.90
9564;DHT22;4820;50.870;4.702;2023-03-13T04:24:49;13.20;99.90
9564;DHT22;4820;50.870;4.702;2023-03-13T04:27:15;13.20;99.90
9564;DHT22;4820;50.870;4.702;2023-03-13T04:29:41;13.30;99.90
9564;DHT22;4820;50.870;4.702;2023-03-13T04:32:07;13.30;99.90
9564;DHT22;4820;50.870;4.702;2023-03-13T04:34:33;13.30;99.90
9564;DHT22;4820;50.870;4.702;2023-03-13T04:36:59;13.30;99.90
9564;DHT22;4820;50.870;4.702;2023-03-13T04:39:24;13.30;99.90
9564;DHT22;4820;50.870;4.702;2023-03-13T04:41:51;13.30;99.90
9564;DHT22;4820;50.870;4.702;2023-03-13T04:44:17;13.30;99.90
9564;DHT22;4820;50.870;4.702;2023-03-13T04:46:42;13.30;99.90
9564;DHT22;4820;50.870;4.702;2023-03-13T04:49:08;13.40;99.90
9564;DHT22;4820;50.870;4.702;2023-03-13T04:51:34;13.40;99.90
9564;DHT22;4820;50.870;4.702;2023-03-13T04:54:00;13.40;99.90
9564;DHT22;4820;50.870;4.702;2023-03-13T04:56:27;13.40;99.90
9564;DHT22;4820;50.870;4.702;2023-03-13T04:58:52;13.40;99.90
9564;DHT22;4820;50.870;4.702;2023-03-13T05:01:18;13.40;99.90
9564;DHT22;4820;50.870;4.702;2023-03-13T05:03:45;13.40;99.90
9564;DHT22;4820;50.870;4.702;2023-03-13T05:06:11;13.40;99.90
9564;DHT22;4820;50.870;4.702;2023-03-13T05:08:37;13.50;99.90
9564;DHT22;4820;50.870;4.702;2023-03-13T05:11:03;13.40;99.90
9564;DHT22;4820;50.870;4.702;2023-03-13T05:13:28;13.50;99.90
9564;DHT22;4820;50.870;4.702;2023-03-13T05:15:54;13.50;99.90
9564;DHT22;4820;50.870;4.702;2023-03-13T05:18:21;13.50;99.90
9564;DHT22;4820;50.870;4.702;2023-03-13T05:20:46;13.50;99.90
9564;DHT22;4820;50.870;4.702;2023-03-13T05:23:12;13.50;99.90
9564;DHT22;4820;50.870;4.702;2023-03-13T05:25:38;13.50;99.90
9564;DHT22;4820;50.870;4.702;2023-03-13T05:28:03;13.60;99.90
9564;DHT22;4820;50.870;4.702;2023-03-13T05:30:29;13.60;99.90
9564;DHT22;4820;50.870;4.702;2023-03-13T05:32:55;13.60;99.90
9564;DHT22;4820;50.870;4.702;2023-03-13T05:35:21;13.60;99.90
9564;DHT22;4820;50.870;4.702;2023-03-13T05:37:47;13.60;99.90
9564;DHT22;4820;50.870;4.702;2023-03-13T05:40:13;13.60;99.90
9564;DHT22;4820;50.870;4.702;2023-03-13T05:42:39;13.60;99.90
9564;DHT22;4820;50.870;4.702;2023-03-13T05:45:05;13.60;99.90
9564;DHT22;4820;50.870;4.702;2023-03-13T05:47:34;13.60;99.90
9564;DHT22;4820;50.870;4.702;2023-03-13T05:50:00;13.60;99.90
9564;DHT22;4820;50.870;4.702;2023-03-13T05:52:26;13.60;99.90
9564;DHT22;4820;50.870;4.702;2023-03-13T05:54:52;13.70;99.90
9564;DHT22;4820;50.870;4.702;2023-03-13T05:57:17;13.70;99.90
9564;DHT22;4820;50.870;4.702;2023-03-13T05:59:43;13.60;99.90
9564;DHT22;4820;50.870;4.702;2023-03-13T06:02:09;13.70;99.90
9564;DHT22;4820;50.870;4.702;2023-03-13T06:04:35;13.60;99.90
9564;DHT22;4820;50.870;4.702;2023-03-13T06:07:01;13.60;99.90
9564;DHT22;4820;50.870;4.702;2023-03-13T06:09:26;13.60;99.90
9564;DHT22;4820;50.870;4.702;2023-03-13T06:11:54;13.60;99.90
9564;DHT22;4820;50.870;4.702;2023-03-13T06:14:19;13.60;99.90
9564;DHT22;4820;50.870;4.702;2023-03-13T06:16:45;13.70;99.90
9564;DHT22;4820;50.870;4.702;2023-03-13T06:19:11;13.70;99.90
9564;DHT22;4820;50.870;4.702;2023-03-13T06:21:37;13.70;99.90
9564;DHT22;4820;50.870;4.702;2023-03-13T06:24:03;13.70;99.90
9564;DHT22;4820;50.870;4.702;2023-03-13T06:26:28;13.70;99.90
9564;DHT22;4820;50.870;4.702;2023-03-13T06:28:54;13.70;99.90
9564;DHT22;4820;50.870;4.702;2023-03-13T06:31:20;13.70;99.90
9564;DHT22;4820;50.870;4.702;2023-03-13T06:33:46;13.70;99.90
9564;DHT22;4820;50.870;4.702;2023-03-13T06:36:12;13.70;99.90
9564;DHT22;4820;50.870;4.702;2023-03-13T06:38:38;13.70;99.90
9564;DHT22;4820;50.870;4.702;2023-03-13T06:41:04;13.70;99.90
9564;DHT22;4820;50.870;4.702;2023-03-13T06:43:30;13.70;99.90
9564;DHT22;4820;50.870;4.702;2023-03-13T06:45:55;13.70;99.90
9564;DHT22;4820;50.870;4.702;2023-03-13T06:48:23;13.70;99.90
9564;DHT22;4820;50.870;4.702;2023-03-13T06:50:49;13.80;99.90
9564;DHT22;4820;50.870;4.702;2023-03-13T06:53:17;13.80;99.90
9564;DHT22;4820;50.870;4.702;2023-03-13T06:55:44;13.80;99.90
9564;DHT22;4820;50.870;4.702;2023-03-13T06:58:10;13.80;99.90
9564;DHT22;4820;50.870;4.702;2023-03-13T07:00:36;13.80;99.90
9564;DHT22;4820;50.870;4.702;2023-03-13T07:03:04;13.80;99.90
9564;DHT22;4820;50.870;4.702;2023-03-13T07:05:30;13.90;99.90
9564;DHT22;4820;50.870;4.702;2023-03-13T07:07:56;13.80;99.90
9564;DHT22;4820;50.870;4.702;2023-03-13T07:10:22;13.90;99.90
9564;DHT22;4820;50.870;4.702;2023-03-13T07:12:50;14.00;99.90
9564;DHT22;4820;50.870;4.702;2023-03-13T07:15:15;13.90;99.90
9564;DHT22;4820;50.870;4.702;2023-03-13T07:17:41;13.90;99.90
9564;DHT22;4820;50.870;4.702;2023-03-13T07:20:08;14.00;99.90
9564;DHT22;4820;50.870;4.702;2023-03-13T07:22:35;14.00;99.90
9564;DHT22;4820;50.870;4.702;2023-03-13T07:25:02;14.00;99.90
9564;DHT22;4820;50.870;4.702;2023-03-13T07:27:29;14.00;99.90
9564;DHT22;4820;50.870;4.702;2023-03-13T07:29:55;14.00;99.90
9564;DHT22;4820;50.870;4.702;2023-03-13T07:32:21;14.10;99.90
9564;DHT22;4820;50.870;4.702;2023-03-13T07:34:46;14.00;99.90
9564;DHT22;4820;50.870;4.702;2023-03-13T07:37:13;14.10;99.90
9564;DHT22;4820;50.870;4.702;2023-03-13T07:39:39;14.10;99.90
9564;DHT22;4820;50.870;4.702;2023-03-13T07:42:09;14.10;99.90
9564;DHT22;4820;50.870;4.702;2023-03-13T07:44:36;14.10;99.90
9564;DHT22;4820;50.870;4.702;2023-03-13T07:47:02;14.10;99.90
9564;DHT22;4820;50.870;4.702;2023-03-13T07:49:28;14.10;99.90
9564;DHT22;4820;50.870;4.702;2023-03-13T07:51:53;14.10;99.90
9564;DHT22;4820;50.870;4.702;2023-03-13T07:54:19;14.20;99.90
9564;DHT22;4820;50.870;4.702;2023-03-13T07:56:46;14.20;99.90
9564;DHT22;4820;50.870;4.702;2023-03-13T07:59:11;14.30;99.90
9564;DHT22;4820;50.870;4.702;2023-03-13T08:01:37;14.30;99.90
9564;DHT22;4820;50.870;4.702;2023-03-13T08:04:03;14.30;99.90
9564;DHT22;4820;50.870;4.702;2023-03-13T08:06:31;14.20;99.90
9564;DHT22;4820;50.870;4.702;2023-03-13T08:08:58;14.20;99.90
9564;DHT22;4820;50.870;4.702;2023-03-13T08:11:26;14.30;99.90
9564;DHT22;4820;50.870;4.702;2023-03-13T08:13:53;14.20;99.90
9564;DHT22;4820;50.870;4.702;2023-03-13T08:16:21;14.20;99.90
9564;DHT22;4820;50.870;4.702;2023-03-13T08:18:50;14.20;99.90
9564;DHT22;4820;50.870;4.702;2023-03-13T08:21:19;14.20;99.90
9564;DHT22;4820;50.870;4.702;2023-03-13T08:23:45;14.20;99.90
9564;DHT22;4820;50.870;4.702;2023-03-13T08:26:18;14.20;99.90
9564;DHT22;4820;50.870;4.702;2023-03-13T08:28:46;14.30;99.90
9564;DHT22;4820;50.870;4.702;2023-03-13T08:31:15;14.40;99.90
9564;DHT22;4820;50.870;4.702;2023-03-13T08:33:43;14.50;99.90
9564;DHT22;4820;50.870;4.702;2023-03-13T08:38:38;14.50;99.90
9564;DHT22;4820;50.870;4.702;2023-03-13T08:41:07;14.60;99.90
9564;DHT22;4820;50.870;4.702;2023-03-13T08:43:33;14.60;99.90
9564;DHT22;4820;50.870;4.702;2023-03-13T08:45:59;14.60;99.90
9564;DHT22;4820;50.870;4.702;2023-03-13T08:48:24;14.60;99.90
9564;DHT22;4820;50.870;4.702;2023-03-13T08:51:04;14.60;99.90
9564;DHT22;4820;50.870;4.702;2023-03-13T08:53:31;14.60;99.90
9564;DHT22;4820;50.870;4.702;2023-03-13T08:55:59;14.60;99.90
9564;DHT22;4820;50.870;4.702;2023-03-13T08:58:25;14.60;99.90
9564;DHT22;4820;50.870;4.702;2023-03-13T09:00:51;14.60;99.90
9564;DHT22;4820;50.870;4.702;2023-03-13T09:03:17;14.50;99.90
9564;DHT22;4820;50.870;4.702;2023-03-13T09:05:43;14.50;99.90
9564;DHT22;4820;50.870;4.702;2023-03-13T09:08:13;14.50;99.90
9564;DHT22;4820;50.870;4.702;2023-03-13T09:10:40;14.60;99.90
9564;DHT22;4820;50.870;4.702;2023-03-13T09:13:05;14.70;99.90
9564;DHT22;4820;50.870;4.702;2023-03-13T09:15:31;14.90;99.90
9564;DHT22;4820;50.870;4.702;2023-03-13T09:17:56;15.00;99.90
9564;DHT22;4820;50.870;4.702;2023-03-13T09:20:22;15.10;99.90
9564;DHT22;4820;50.870;4.702;2023-03-13T09:22:48;15.10;99.90
9564;DHT22;4820;50.870;4.702;2023-03-13T09:25:14;15.30;99.90
9564;DHT22;4820;50.870;4.702;2023-03-13T09:27:40;15.40;99.90
9564;DHT22;4820;50.870;4.702;2023-03-13T09:30:06;15.40;99.90
9564;DHT22;4820;50.870;4.702;2023-03-13T09:32:34;15.40;99.90
9564;DHT22;4820;50.870;4.702;2023-03-13T09:35:01;15.40;99.90
9564;DHT22;4820;50.870;4.702;2023-03-13T09:37:28;15.50;99.90
9564;DHT22;4820;50.870;4.702;2023-03-13T09:39:53;15.50;99.90
9564;DHT22;4820;50.870;4.702;2023-03-13T09:42:43;15.50;99.90
9564;DHT22;4820;50.870;4.702;2023-03-13T09:45:32;15.50;99.90
9564;DHT22;4820;50.870;4.702;2023-03-13T09:48:23;15.60;99.90
9564;DHT22;4820;50.870;4.702;2023-03-13T09:51:10;15.70;99.90
9564;DHT22;4820;50.870;4.702;2023-03-13T09:56:17;15.70;99.90
9564;DHT22;4820;50.870;4.702;2023-03-13T09:58:58;15.60;99.90
9564;DHT22;4820;50.870;4.702;2023-03-13T10:01:29;15.60;99.90
9564;DHT22;4820;50.870;4.702;2023-03-13T10:06:24;15.60;99.90
9564;DHT22;4820;50.870;4.702;2023-03-13T10:08:52;15.60;99.90
9564;DHT22;4820;50.870;4.702;2023-03-13T10:11:55;15.70;99.90
9564;DHT22;4820;50.870;4.702;2023-03-13T10:17:19;15.90;99.90
9564;DHT22;4820;50.870;4.702;2023-03-13T10:19:47;16.00;99.90
9564;DHT22;4820;50.870;4.702;2023-03-13T10:22:23;15.90;99.90
9564;DHT22;4820;50.870;4.702;2023-03-13T10:25:11;15.90;99.90
9564;DHT22;4820;50.870;4.702;2023-03-13T10:27:47;16.00;99.90
9564;DHT22;4820;50.870;4.702;2023-03-13T10:30:26;16.00;99.90
9564;DHT22;4820;50.870;4.702;2023-03-13T10:35:40;16.10;99.90
9564;DHT22;4820;50.870;4.702;2023-03-13T10:38:13;16.10;99.90
9564;DHT22;4820;50.870;4.702;2023-03-13T10:40:39;16.10;99.90
9564;DHT22;4820;50.870;4.702;2023-03-13T10:43:16;16.20;99.90
9564;DHT22;4820;50.870;4.702;2023-03-13T10:45:43;16.20;99.90
9564;DHT22;4820;50.870;4.702;2023-03-13T10:48:17;16.10;99.90
9564;DHT22;4820;50.870;4.702;2023-03-13T10:50:45;16.10;99.90
9564;DHT22;4820;50.870;4.702;2023-03-13T10:55:59;16.10;99.90
9564;DHT22;4820;50.870;4.702;2023-03-13T10:58:33;16.20;99.90
9564;DHT22;4820;50.870;4.702;2023-03-13T11:01:18;16.20;99.90
9564;DHT22;4820;50.870;4.702;2023-03-13T11:03:46;16.20;99.90
9564;DHT22;4820;50.870;4.702;2023-03-13T11:06:24;16.20;99.90
9564;DHT22;4820;50.870;4.702;2023-03-13T11:09:18;16.30;99.90
9564;DHT22;4820;50.870;4.702;2023-03-13T11:11:54;16.30;99.90
9564;DHT22;4820;50.870;4.702;2023-03-13T11:14:23;16.40;99.90
9564;DHT22;4820;50.870;4.702;2023-03-13T11:19:39;16.40;99.90
9564;DHT22;4820;50.870;4.702;2023-03-13T11:22:27;16.40;99.90
9564;DHT22;4820;50.870;4.702;2023-03-13T11:33:04;16.60;99.90
9564;DHT22;4820;50.870;4.702;2023-03-13T11:35:52;16.60;99.90
9564;DHT22;4820;50.870;4.702;2023-03-13T11:38:25;16.40;99.90
9564;DHT22;4820;50.870;4.702;2023-03-13T12:01:13;16.40;99.90
9564;DHT22;4820;50.870;4.702;2023-03-13T12:06:33;16.80;99.90
9564;DHT22;4820;50.870;4.702;2023-03-13T12:09:22;16.90;99.90
9564;DHT22;4820;50.870;4.702;2023-03-13T12:12:20;16.90;99.90
9564;DHT22;4820;50.870;4.702;2023-03-13T12:15:37;16.90;99.90
9564;DHT22;4820;50.870;4.702;2023-03-13T12:17:52;16.80;99.90
9564;DHT22;4820;50.870;4.702;2023-03-13T12:20:46;16.70;99.90
9564;DHT22;4820;50.870;4.702;2023-03-13T12:26:52;16.80;99.90
9564;DHT22;4820;50.870;4.702;2023-03-13T12:29:36;16.90;99.90
9564;DHT22;4820;50.870;4.702;2023-03-13T12:32:28;17.00;99.90
9564;DHT22;4820;50.870;4.702;2023-03-13T12:35:28;17.00;99.90
9564;DHT22;4820;50.870;4.702;2023-03-13T12:38:22;16.90;99.90
9564;DHT22;4820;50.870;4.702;2023-03-13T12:41:25;17.00;99.90
9564;DHT22;4820;50.870;4.702;2023-03-13T12:43:53;17.10;99.90
9564;DHT22;4820;50.870;4.702;2023-03-13T12:46:39;17.20;99.90
9564;DHT22;4820;50.870;4.702;2023-03-13T12:59:53;17.40;99.90
9564;DHT22;4820;50.870;4.702;2023-03-13T13:02:24;17.40;99.90
9564;DHT22;4820;50.870;4.702;2023-03-13T13:04:54;17.40;99.90
9564;DHT22;4820;50.870;4.702;2023-03-13T13:07:24;17.40;99.90
9564;DHT22;4820;50.870;4.702;2023-03-13T13:10:14;17.30;99.90
9564;DHT22;4820;50.870;4.702;2023-03-13T13:12:46;17.10;99.90
9564;DHT22;4820;50.870;4.702;2023-03-13T13:15:25;17.00;99.90
9564;DHT22;4820;50.870;4.702;2023-03-13T13:18:14;16.90;99.90
9564;DHT22;4820;50.870;4.702;2023-03-13T13:20:42;17.00;99.90
9564;DHT22;4820;50.870;4.702;2023-03-13T13:23:33;17.00;99.90
9564;DHT22;4820;50.870;4.702;2023-03-13T13:28:59;16.90;99.90
9564;DHT22;4820;50.870;4.702;2023-03-13T13:36:58;17.00;99.90
9564;DHT22;4820;50.870;4.702;2023-03-13T13:39:38;17.00;99.90
9564;DHT22;4820;50.870;4.702;2023-03-13T13:47:48;17.00;99.90
9564;DHT22;4820;50.870;4.702;2023-03-13T13:50:21;16.90;99.90
9564;DHT22;4820;50.870;4.702;2023-03-13T13:52:48;16.90;99.90
9564;DHT22;4820;50.870;4.702;2023-03-13T13:55:40;16.90;99.90
9564;DHT22;4820;50.870;4.702;2023-03-13T13:58:20;16.90;99.90
9564;DHT22;4820;50.870;4.702;2023-03-13T14:01:03;17.00;99.90
9564;DHT22;4820;50.870;4.702;2023-03-13T14:03:38;16.90;99.90
9564;DHT22;4820;50.870;4.702;2023-03-13T14:06:26;16.90;99.90
9564;DHT22;4820;50.870;4.702;2023-03-13T14:09:01;17.00;99.90
9564;DHT22;4820;50.870;4.702;2023-03-13T14:11:37;17.00;99.90
9564;DHT22;4820;50.870;4.702;2023-03-13T14:14:16;17.00;99.90
9564;DHT22;4820;50.870;4.702;2023-03-13T14:16:44;17.10;99.90
9564;DHT22;4820;50.870;4.702;2023-03-13T14:19:40;17.20;99.90
9564;DHT22;4820;50.870;4.702;2023-03-13T14:22:09;17.20;99.90
9564;DHT22;4820;50.870;4.702;2023-03-13T14:24:35;17.10;99.90
9564;DHT22;4820;50.870;4.702;2023-03-13T14:27:13;17.20;99.90
9564;DHT22;4820;50.870;4.702;2023-03-13T14:29:39;17.20;99.90
9564;DHT22;4820;50.870;4.702;2023-03-13T14:32:05;17.20;99.90
9564;DHT22;4820;50.870;4.702;2023-03-13T14:34:31;17.20;99.90
9564;DHT22;4820;50.870;4.702;2023-03-13T14:36:59;17.20;99.90
9564;DHT22;4820;50.870;4.702;2023-03-13T14:42:02;17.30;99.90
9564;DHT22;4820;50.870;4.702;2023-03-13T14:44:33;17.40;99.90
9564;DHT22;4820;50.870;4.702;2023-03-13T14:47:04;17.40;99.90
9564;DHT22;4820;50.870;4.702;2023-03-13T14:49:30;17.40;99.90
9564;DHT22;4820;50.870;4.702;2023-03-13T14:52:19;17.40;99.90
9564;DHT22;4820;50.870;4.702;2023-03-13T14:54:59;17.30;99.90
9564;DHT22;4820;50.870;4.702;2023-03-13T14:57:31;17.30;99.90
9564;DHT22;4820;50.870;4.702;2023-03-13T15:03:18;17.20;99.90
9564;DHT22;4820;50.870;4.702;2023-03-13T15:08:47;17.10;99.90
9564;DHT22;4820;50.870;4.702;2023-03-13T15:11:30;17.00;99.90
9564;DHT22;4820;50.870;4.702;2023-03-13T15:13:58;17.00;99.90
9564;DHT22;4820;50.870;4.702;2023-03-13T15:16:25;17.00;99.90
9564;DHT22;4820;50.870;4.702;2023-03-13T15:18:52;17.00;99.90
9564;DHT22;4820;50.870;4.702;2023-03-13T15:21:25;17.00;99.90
9564;DHT22;4820;50.870;4.702;2023-03-13T15:23:58;17.00;99.90
9564;DHT22;4820;50.870;4.702;2023-03-13T15:26:25;17.10;99.90
9564;DHT22;4820;50.870;4.702;2023-03-13T15:28:51;17.20;99.90
9564;DHT22;4820;50.870;4.702;2023-03-13T15:31:19;17.20;99.90
9564;DHT22;4820;50.870;4.702;2023-03-13T15:33:45;17.30;99.90
9564;DHT22;4820;50.870;4.702;2023-03-13T15:36:10;17.30;99.90
9564;DHT22;4820;50.870;4.702;2023-03-13T15:38:37;17.30;99.90
9564;DHT22;4820;50.870;4.702;2023-03-13T15:41:04;17.20;99.90
9564;DHT22;4820;50.870;4.702;2023-03-13T15:43:31;17.10;99.90
9564;DHT22;4820;50.870;4.702;2023-03-13T15:45:57;17.00;99.90
9564;DHT22;4820;50.870;4.702;2023-03-13T15:48:27;16.90;99.90
9564;DHT22;4820;50.870;4.702;2023-03-13T15:50:58;16.90;99.90
9564;DHT22;4820;50.870;4.702;2023-03-13T15:53:27;16.90;99.90
9564;DHT22;4820;50.870;4.702;2023-03-13T15:55:55;16.80;99.90
9564;DHT22;4820;50.870;4.702;2023-03-13T15:58:20;16.80;99.90
9564;DHT22;4820;50.870;4.702;2023-03-13T16:00:46;16.80;99.90
9564;DHT22;4820;50.870;4.702;2023-03-13T16:03:15;16.80;99.90
9564;DHT22;4820;50.870;4.702;2023-03-13T16:05:42;16.80;99.90
9564;DHT22;4820;50.870;4.702;2023-03-13T16:08:17;16.70;99.90
9564;DHT22;4820;50.870;4.702;2023-03-13T16:10:44;16.70;99.90
9564;DHT22;4820;50.870;4.702;2023-03-13T16:13:10;16.70;99.90
9564;DHT22;4820;50.870;4.702;2023-03-13T16:15:36;16.60;99.90
9564;DHT22;4820;50.870;4.702;2023-03-13T16:18:03;16.60;99.90
9564;DHT22;4820;50.870;4.702;2023-03-13T16:20:30;16.60;99.90
9564;DHT22;4820;50.870;4.702;2023-03-13T16:22:56;16.50;99.90
9564;DHT22;4820;50.870;4.702;2023-03-13T16:25:24;16.50;99.90
9564;DHT22;4820;50.870;4.702;2023-03-13T16:27:49;16.50;99.90
9564;DHT22;4820;50.870;4.702;2023-03-13T16:30:30;16.50;99.90
9564;DHT22;4820;50.870;4.702;2023-03-13T16:32:57;16.50;99.90
9564;DHT22;4820;50.870;4.702;2023-03-13T16:35:26;16.40;99.90
9564;DHT22;4820;50.870;4.702;2023-03-13T16:37:54;16.40;99.90
9564;DHT22;4820;50.870;4.702;2023-03-13T16:40:30;16.40;99.90
9564;DHT22;4820;50.870;4.702;2023-03-13T16:42:56;16.30;99.90
9564;DHT22;4820;50.870;4.702;2023-03-13T16:45:24;16.30;99.90
9564;DHT22;4820;50.870;4.702;2023-03-13T16:47:51;16.30;99.90
9564;DHT22;4820;50.870;4.702;2023-03-13T16:52:49;16.20;99.90
9564;DHT22;4820;50.870;4.702;2023-03-13T16:55:17;16.10;99.90
9564;DHT22;4820;50.870;4.702;2023-03-13T16:57:43;16.10;99.90
9564;DHT22;4820;50.870;4.702;2023-03-13T17:00:15;16.10;99.90
9564;DHT22;4820;50.870;4.702;2023-03-13T17:02:42;16.00;99.90
9564;DHT22;4820;50.870;4.702;2023-03-13T17:05:08;16.00;99.90
9564;DHT22;4820;50.870;4.702;2023-03-13T17:07:35;16.00;99.90
9564;DHT22;4820;50.870;4.702;2023-03-13T17:10:01;15.90;99.90
9564;DHT22;4820;50.870;4.702;2023-03-13T17:12:27;15.90;99.90
9564;DHT22;4820;50.870;4.702;2023-03-13T17:14:55;15.90;99.90
9564;DHT22;4820;50.870;4.702;2023-03-13T17:17:21;15.80;99.90
9564;DHT22;4820;50.870;4.702;2023-03-13T17:19:47;15.80;99.90
9564;DHT22;4820;50.870;4.702;2023-03-13T17:22:16;15.70;99.90
9564;DHT22;4820;50.870;4.702;2023-03-13T17:24:43;15.70;99.90
9564;DHT22;4820;50.870;4.702;2023-03-13T17:27:13;15.70;99.90
9564;DHT22;4820;50.870;4.702;2023-03-13T17:29:41;15.70;99.90
9564;DHT22;4820;50.870;4.702;2023-03-13T17:32:09;15.60;99.90
9564;DHT22;4820;50.870;4.702;2023-03-13T17:34:35;15.60;99.90
9564;DHT22;4820;50.870;4.702;2023-03-13T17:37:01;15.60;99.90
9564;DHT22;4820;50.870;4.702;2023-03-13T17:39:30;15.60;99.90
9564;DHT22;4820;50.870;4.702;2023-03-13T17:41:59;15.50;99.90
9564;DHT22;4820;50.870;4.702;2023-03-13T17:44:28;15.50;99.90
9564;DHT22;4820;50.870;4.702;2023-03-13T17:46:54;15.50;99.90
9564;DHT22;4820;50.870;4.702;2023-03-13T17:49:20;15.40;99.90
9564;DHT22;4820;50.870;4.702;2023-03-13T17:51:46;15.40;99.90